Time;durP1;ratioP1;P1;durP2;ratioP2;P2;SDS_P1;SDS_P2;PMS_P1;PMS_P2;Temp;Humidity;BMP_temperature;BMP_pressure;BME280_temperature;BME280_humidity;BME280_pressure;Samples;Min_cycle;Max_cycle;Signal;HPM_P1;HPM_P2
2022/01/23 00:02:11;;;;;;;;;40.50;30.00;;;;;;;;6333420;22;28590;-84
2022/01/23 00:04:36;;;;;;;;;47.75;34.25;;;;;;;;6360748;22;28447;-83
2022/01/23 00:07:05;;;;;;;;;44.00;31.50;;;;;;;;6362388;22;28183;-83
2022/01/23 00:09:30;;;;;;;;;59.25;35.25;;;;;;;;6360397;22;28324;-82
2022/01/23 00:11:56;;;;;;;;;45.50;35.50;;;;;;;;6361460;22;28437;-82
2022/01/23 00:17:17;;;;;;;;;46.50;33.50;;;;;;;;6360301;22;28450;-82
2022/01/23 00:19:43;;;;;;;;;53.75;39.25;;;;;;;;6329081;22;729896;-83
2022/01/23 00:22:10;;;;;;;;;43.75;34.50;;;;;;;;6337300;22;590062;-84
2022/01/23 00:32:47;;;;;;;;;49.50;38.25;;;;;;;;6361323;22;28316;-84
2022/01/23 00:35:13;;;;;;;;;53.75;40.75;;;;;;;;6333481;22;28418;-85
2022/01/23 00:37:40;;;;;;;;;56.75;39.25;;;;;;;;6361840;22;28428;-86
2022/01/23 00:40:06;;;;;;;;;52.50;31.50;;;;;;;;6332904;22;28361;-86
2022/01/23 00:42:31;;;;;;;;;46.25;36.25;;;;;;;;6333307;22;28503;-86
2022/01/23 00:45:10;;;;;;;;;48.50;36.00;;;;;;;;6333913;22;29230;-85
2022/01/23 00:47:36;;;;;;;;;42.75;35.50;;;;;;;;6359740;22;28456;-86
2022/01/23 00:50:01;;;;;;;;;58.25;36.75;;;;;;;;6330538;22;28484;-85
2022/01/23 00:52:27;;;;;;;;;52.25;36.50;;;;;;;;6361460;22;29685;-85
2022/01/23 00:54:52;;;;;;;;;52.00;36.25;;;;;;;;6361550;22;28407;-85
2022/01/23 00:57:17;;;;;;;;;39.33;36.33;;;;;;;;6360520;22;28350;-85
2022/01/23 00:59:42;;;;;;;;;42.67;35.67;;;;;;;;6362080;22;28407;-85
2022/01/23 01:02:07;;;;;;;;;49.00;33.67;;;;;;;;6333728;22;30973;-85
2022/01/23 01:04:33;;;;;;;;;47.00;29.00;;;;;;;;6361765;22;28371;-85
2022/01/23 01:06:58;;;;;;;;;51.33;37.00;;;;;;;;6361440;22;28591;-85
2022/01/23 01:09:23;;;;;;;;;52.00;34.25;;;;;;;;6361199;22;28528;-85
2022/01/23 01:11:59;;;;;;;;;53.25;35.75;;;;;;;;6332427;22;30590;-85
2022/01/23 01:35:44;;;;;;;;;46.25;30.25;;;;;;;;6361289;22;28246;-85
2022/01/23 01:38:09;;;;;;;;;42.50;34.25;;;;;;;;6333311;22;28251;-85
2022/01/23 01:40:36;;;;;;;;;41.75;29.75;;;;;;;;6333350;22;28513;-85
2022/01/23 01:43:01;;;;;;;;;48.25;33.75;;;;;;;;6360604;22;28418;-85
2022/01/23 01:45:28;;;;;;;;;45.75;37.00;;;;;;;;6332771;22;28428;-85
2022/01/23 01:47:55;;;;;;;;;43.25;31.75;;;;;;;;6360208;22;28351;-85
2022/01/23 01:50:20;;;;;;;;;39.25;30.75;;;;;;;;6333089;22;28436;-85
2022/01/23 01:52:46;;;;;;;;;47.00;32.50;;;;;;;;6333132;22;30771;-85
2022/01/23 01:55:14;;;;;;;;;31.75;26.50;;;;;;;;6361827;22;28444;-85
2022/01/23 01:57:44;;;;;;;;;41.50;29.00;;;;;;;;6361080;22;28376;-85
2022/01/23 02:11:16;;;;;;;;;47.50;31.50;;;;;;;;6276426;22;28466;-84
2022/01/23 02:13:51;;;;;;;;;33.25;28.50;;;;;;;;6327220;22;29952;-85
2022/01/23 02:24:34;;;;;;;;;51.00;28.50;;;;;;;;6329197;22;28269;-84
2022/01/23 02:52:20;;;;;;;;;30.50;26.50;;;;;;;;6328977;22;28257;-85
2022/01/23 02:54:27;;;;;;;;;42.25;27.75;;;;;;;;6319852;22;28329;-84
2022/01/23 02:56:56;;;;;;;;;37.00;26.50;;;;;;;;6329473;22;29367;-85
2022/01/23 02:59:25;;;;;;;;;31.25;22.00;;;;;;;;6326392;22;29036;-85
2022/01/23 03:04:26;;;;;;;;;37.50;29.50;;;;;;;;6328864;22;28258;-85
2022/01/23 03:07:11;;;;;;;;;33.75;27.50;;;;;;;;6326655;22;29851;-84
2022/01/23 03:14:57;;;;;;;;;43.75;28.50;;;;;;;;6360942;22;28342;-82
2022/01/23 03:28:34;;;;;;;;;33.75;26.25;;;;;;;;6360567;22;28930;-85
2022/01/23 03:33:43;;;;;;;;;29.75;16.25;;;;;;;;6359348;22;28307;-85
2022/01/23 03:36:08;;;;;;;;;39.67;28.67;;;;;;;;6360020;22;28246;-85
2022/01/23 03:38:34;;;;;;;;;31.00;23.67;;;;;;;;6332081;22;29487;-85
2022/01/23 03:40:59;;;;;;;;;31.00;21.00;;;;;;;;6331666;22;28421;-85
2022/01/23 03:43:31;;;;;;;;;33.00;25.50;;;;;;;;6360906;22;28452;-85
2022/01/23 03:51:11;;;;;;;;;31.75;25.25;;;;;;;;6360828;22;28623;-85
2022/01/23 03:53:36;;;;;;;;;38.25;30.75;;;;;;;;6359878;22;28247;-85
2022/01/23 03:56:03;;;;;;;;;38.00;27.75;;;;;;;;6331699;22;28361;-85
2022/01/23 03:58:28;;;;;;;;;26.75;23.00;;;;;;;;6331891;22;28520;-85
2022/01/23 04:00:54;;;;;;;;;34.00;26.33;;;;;;;;6331011;22;28414;-85
2022/01/23 04:03:19;;;;;;;;;40.75;27.75;;;;;;;;6360605;22;28324;-85
2022/01/23 04:05:45;;;;;;;;;26.50;21.75;;;;;;;;6360529;22;28522;-85
2022/01/23 04:08:10;;;;;;;;;31.75;26.50;;;;;;;;6360713;22;29397;-85
2022/01/23 04:10:36;;;;;;;;;39.25;27.50;;;;;;;;6359246;22;28410;-85
2022/01/23 04:32:47;;;;;;;;;47.25;30.00;;;;;;;;6375768;22;28179;-84
2022/01/23 04:45:49;;;;;;;;;33.75;21.00;;;;;;;;6332188;22;28202;-85
2022/01/23 04:59:36;;;;;;;;;32.75;21.50;;;;;;;;6360912;22;28355;-85
2022/01/23 05:04:46;;;;;;;;;33.75;26.00;;;;;;;;6360789;22;28517;-85
2022/01/23 05:07:14;;;;;;;;;52.50;32.00;;;;;;;;6334296;22;28222;-85
2022/01/23 05:09:39;;;;;;;;;29.75;23.00;;;;;;;;6333693;22;28662;-85
2022/01/23 05:12:06;;;;;;;;;41.00;27.50;;;;;;;;6332853;22;29656;-85
2022/01/23 05:14:37;;;;;;;;;38.75;28.50;;;;;;;;6360659;22;28406;-85
2022/01/23 05:17:04;;;;;;;;;28.25;22.25;;;;;;;;6362447;22;28489;-85
2022/01/23 05:19:29;;;;;;;;;35.25;25.50;;;;;;;;6360643;22;28324;-84
2022/01/23 05:22:21;;;;;;;;;38.50;25.75;;;;;;;;6362249;22;28393;-85
2022/01/23 05:24:46;;;;;;;;;34.50;28.00;;;;;;;;6359815;22;28327;-85
2022/01/23 05:27:11;;;;;;;;;31.50;24.25;;;;;;;;6362178;22;28176;-84
2022/01/23 05:29:37;;;;;;;;;35.75;23.75;;;;;;;;6360858;22;28229;-85
2022/01/23 05:32:03;;;;;;;;;30.50;20.25;;;;;;;;6360719;22;29109;-83
2022/01/23 05:34:28;;;;;;;;;32.25;25.50;;;;;;;;6360784;22;29125;-83
2022/01/23 05:36:53;;;;;;;;;39.50;23.75;;;;;;;;6333940;22;28179;-84
2022/01/23 05:39:21;;;;;;;;;25.50;20.00;;;;;;;;6361579;22;28290;-85
2022/01/23 05:41:47;;;;;;;;;38.25;24.25;;;;;;;;6360736;22;28384;-84
2022/01/23 05:44:13;;;;;;;;;29.75;18.00;;;;;;;;6361508;22;28268;-83
2022/01/23 05:46:38;;;;;;;;;36.75;26.00;;;;;;;;6362248;22;28377;-85
2022/01/23 05:49:05;;;;;;;;;36.75;24.50;;;;;;;;6332248;22;28394;-84
2022/01/23 05:51:30;;;;;;;;;26.25;21.25;;;;;;;;6360279;22;29242;-84
2022/01/23 05:53:55;;;;;;;;;25.75;20.00;;;;;;;;6332004;22;28418;-85
2022/01/23 05:56:21;;;;;;;;;23.67;20.67;;;;;;;;6333103;22;28279;-83
2022/01/23 05:58:46;;;;;;;;;38.00;22.25;;;;;;;;6360492;22;28453;-85
2022/01/23 06:01:11;;;;;;;;;36.33;21.00;;;;;;;;6360792;22;28242;-85
2022/01/23 06:03:37;;;;;;;;;28.67;19.67;;;;;;;;6332563;22;28407;-85
2022/01/23 06:06:02;;;;;;;;;35.25;22.25;;;;;;;;6332272;22;28291;-84
2022/01/23 06:08:29;;;;;;;;;32.25;18.75;;;;;;;;6360671;22;28339;-85
2022/01/23 06:10:57;;;;;;;;;21.25;16.00;;;;;;;;6360035;22;28356;-85
2022/01/23 06:13:23;;;;;;;;;40.75;22.00;;;;;;;;6360875;22;28699;-85
2022/01/23 06:15:48;;;;;;;;;27.00;21.75;;;;;;;;6331995;22;28484;-85
2022/01/23 06:18:14;;;;;;;;;26.00;16.25;;;;;;;;6332780;22;28595;-84
2022/01/23 06:20:39;;;;;;;;;27.00;17.33;;;;;;;;6360149;22;28367;-84
2022/01/23 06:23:04;;;;;;;;;34.50;21.50;;;;;;;;6360088;22;28192;-85
2022/01/23 06:25:34;;;;;;;;;20.00;16.00;;;;;;;;6332730;22;28305;-84
2022/01/23 06:28:00;;;;;;;;;27.75;21.25;;;;;;;;6360385;22;28540;-85
2022/01/23 06:30:25;;;;;;;;;30.75;17.00;;;;;;;;6360046;22;28524;-85
2022/01/23 06:32:50;;;;;;;;;17.33;13.67;;;;;;;;6333303;22;28811;-85
2022/01/23 06:35:16;;;;;;;;;26.50;20.00;;;;;;;;6360819;22;28402;-85
2022/01/23 06:37:41;;;;;;;;;19.25;16.00;;;;;;;;6332692;22;28672;-85
2022/01/23 06:40:06;;;;;;;;;15.33;13.33;;;;;;;;6332168;22;29521;-85
2022/01/23 06:42:32;;;;;;;;;19.75;15.75;;;;;;;;6359955;22;28478;-85
2022/01/23 06:44:58;;;;;;;;;20.67;16.67;;;;;;;;6360540;22;28283;-85
2022/01/23 06:47:23;;;;;;;;;16.00;11.25;;;;;;;;6361074;22;28408;-85
2022/01/23 06:49:48;;;;;;;;;16.25;11.50;;;;;;;;6360453;22;28319;-84
2022/01/23 06:52:14;;;;;;;;;16.67;11.33;;;;;;;;6361211;22;28433;-85
2022/01/23 06:54:39;;;;;;;;;15.00;10.00;;;;;;;;6360532;22;28461;-85
2022/01/23 06:57:04;;;;;;;;;22.33;11.00;;;;;;;;6360723;22;28249;-84
2022/01/23 06:59:30;;;;;;;;;13.50;9.75;;;;;;;;6360140;22;28436;-84
2022/01/23 07:01:57;;;;;;;;;14.50;9.25;;;;;;;;6332639;22;28558;-84
2022/01/23 07:04:23;;;;;;;;;14.25;9.50;;;;;;;;6332582;22;28353;-85
2022/01/23 07:06:48;;;;;;;;;18.00;12.50;;;;;;;;6331418;22;28185;-84
2022/01/23 07:09:13;;;;;;;;;20.25;11.75;;;;;;;;6360107;22;28281;-85
2022/01/23 07:11:39;;;;;;;;;20.00;14.00;;;;;;;;6360481;22;28593;-85
2022/01/23 07:14:05;;;;;;;;;16.50;12.00;;;;;;;;6360140;22;28552;-84
2022/01/23 07:16:31;;;;;;;;;21.25;12.25;;;;;;;;6360756;22;28344;-84
2022/01/23 07:18:56;;;;;;;;;28.75;11.00;;;;;;;;6360671;22;28386;-84
2022/01/23 07:21:21;;;;;;;;;17.67;15.67;;;;;;;;6331642;22;28583;-84
2022/01/23 07:23:49;;;;;;;;;22.00;15.00;;;;;;;;6361255;22;28436;-85
2022/01/23 07:26:15;;;;;;;;;23.50;14.75;;;;;;;;6360572;22;28234;-84
2022/01/23 07:28:43;;;;;;;;;17.25;12.50;;;;;;;;6360476;22;28323;-84
2022/01/23 07:31:10;;;;;;;;;16.75;14.75;;;;;;;;6331517;22;28260;-84
2022/01/23 07:33:38;;;;;;;;;15.50;12.00;;;;;;;;6331001;22;28390;-84
2022/01/23 07:36:04;;;;;;;;;17.75;14.25;;;;;;;;6360011;22;28565;-84
2022/01/23 07:38:30;;;;;;;;;16.25;10.50;;;;;;;;6360576;22;29135;-84
2022/01/23 07:40:55;;;;;;;;;14.00;12.25;;;;;;;;6331463;22;28344;-85
2022/01/23 07:43:21;;;;;;;;;15.50;14.00;;;;;;;;6332673;22;28260;-84
2022/01/23 07:45:46;;;;;;;;;23.50;16.00;;;;;;;;6359546;22;28292;-84
2022/01/23 07:48:11;;;;;;;;;16.50;11.25;;;;;;;;6331560;22;28501;-84
2022/01/23 07:50:37;;;;;;;;;21.75;20.00;;;;;;;;6330792;22;28557;-84
2022/01/23 07:53:03;;;;;;;;;19.50;11.75;;;;;;;;6330717;22;28341;-84
2022/01/23 07:55:28;;;;;;;;;17.00;8.25;;;;;;;;6357929;22;28405;-84
2022/01/23 07:57:54;;;;;;;;;17.50;13.25;;;;;;;;6331012;22;28894;-85
2022/01/23 08:00:20;;;;;;;;;24.50;17.75;;;;;;;;6331869;22;29455;-85
2022/01/23 08:02:45;;;;;;;;;16.00;15.00;;;;;;;;6360391;22;28316;-85
2022/01/23 08:05:11;;;;;;;;;17.00;16.00;;;;;;;;6360695;22;28387;-85
2022/01/23 08:07:36;;;;;;;;;33.67;20.33;;;;;;;;6361968;22;28317;-84
2022/01/23 08:10:05;;;;;;;;;23.00;17.00;;;;;;;;6361000;22;28470;-84
2022/01/23 08:12:32;;;;;;;;;19.75;15.50;;;;;;;;6360327;22;28513;-84
2022/01/23 08:14:58;;;;;;;;;29.50;22.50;;;;;;;;6361220;22;28300;-85
2022/01/23 08:17:24;;;;;;;;;29.50;17.00;;;;;;;;6361376;22;28359;-84
2022/01/23 08:19:50;;;;;;;;;20.00;12.50;;;;;;;;6361907;22;28463;-85
2022/01/23 08:22:16;;;;;;;;;23.00;16.75;;;;;;;;6361644;22;28555;-85
2022/01/23 08:24:41;;;;;;;;;29.67;14.00;;;;;;;;6362041;22;28422;-84
2022/01/23 08:27:06;;;;;;;;;21.67;18.00;;;;;;;;6361098;22;28400;-84
2022/01/23 08:29:32;;;;;;;;;22.25;15.50;;;;;;;;6361478;22;28453;-84
2022/01/23 08:31:57;;;;;;;;;23.50;17.00;;;;;;;;6361237;22;28833;-84
2022/01/23 08:34:22;;;;;;;;;20.00;18.00;;;;;;;;6360701;22;28486;-84
2022/01/23 08:36:47;;;;;;;;;24.00;14.25;;;;;;;;6334020;22;29710;-85
2022/01/23 08:39:15;;;;;;;;;18.75;15.25;;;;;;;;6361921;22;28393;-85
2022/01/23 08:41:49;;;;;;;;;20.50;16.00;;;;;;;;6361770;22;28286;-85
2022/01/23 08:44:15;;;;;;;;;18.50;15.00;;;;;;;;6332473;22;28407;-84
2022/01/23 08:46:41;;;;;;;;;23.00;19.75;;;;;;;;6362109;22;28277;-84
2022/01/23 08:49:06;;;;;;;;;26.75;17.75;;;;;;;;6360614;22;28245;-85
2022/01/23 08:51:31;;;;;;;;;19.50;16.00;;;;;;;;6360535;22;28253;-85
2022/01/23 08:53:59;;;;;;;;;23.75;15.50;;;;;;;;6332242;22;28411;-84
2022/01/23 08:56:24;;;;;;;;;16.25;15.00;;;;;;;;6361821;22;29163;-85
2022/01/23 08:58:49;;;;;;;;;28.50;16.00;;;;;;;;6331741;22;28714;-85
2022/01/23 09:01:15;;;;;;;;;27.00;17.00;;;;;;;;6362247;22;28547;-84
2022/01/23 09:03:40;;;;;;;;;25.67;12.00;;;;;;;;6332071;22;28383;-84
2022/01/23 09:06:07;;;;;;;;;21.25;14.25;;;;;;;;6333129;22;28587;-85
2022/01/23 09:08:35;;;;;;;;;20.75;16.00;;;;;;;;6361135;22;28392;-84
2022/01/23 09:11:07;;;;;;;;;21.00;12.00;;;;;;;;6361050;22;28286;-84
2022/01/23 09:16:09;;;;;;;;;23.50;15.75;;;;;;;;6360260;22;28267;-84
2022/01/23 09:18:35;;;;;;;;;21.25;12.00;;;;;;;;6333105;22;28687;-84
2022/01/23 09:21:00;;;;;;;;;20.00;15.50;;;;;;;;6360430;22;28418;-83
2022/01/23 09:23:25;;;;;;;;;34.00;16.33;;;;;;;;6362209;22;28159;-84
2022/01/23 09:25:51;;;;;;;;;19.67;14.33;;;;;;;;6361878;22;28300;-84
2022/01/23 09:28:19;;;;;;;;;18.25;16.75;;;;;;;;6330583;22;28380;-85
2022/01/23 09:30:48;;;;;;;;;25.50;17.00;;;;;;;;6359025;22;28578;-84
2022/01/23 09:33:14;;;;;;;;;29.25;17.00;;;;;;;;6359422;22;28514;-84
2022/01/23 09:35:39;;;;;;;;;31.25;19.25;;;;;;;;6329989;22;29692;-84
2022/01/23 09:38:05;;;;;;;;;21.33;16.67;;;;;;;;6357995;22;28336;-84
2022/01/23 09:40:30;;;;;;;;;21.50;17.00;;;;;;;;6358721;22;28412;-84
2022/01/23 09:43:01;;;;;;;;;19.25;16.00;;;;;;;;6359687;22;28368;-84
2022/01/23 09:45:27;;;;;;;;;24.75;15.25;;;;;;;;6330364;22;29864;-84
2022/01/23 09:47:54;;;;;;;;;8.50;8.00;;;;;;;;6359933;22;28460;-84
2022/01/23 09:50:20;;;;;;;;;15.75;8.00;;;;;;;;6359520;22;28578;-82
2022/01/23 09:52:45;;;;;;;;;23.75;15.00;;;;;;;;6360437;22;28346;-83
2022/01/23 09:55:12;;;;;;;;;23.25;15.50;;;;;;;;6333169;22;28512;-84
2022/01/23 09:57:45;;;;;;;;;24.00;11.00;;;;;;;;6360693;22;28356;-84
2022/01/23 10:00:11;;;;;;;;;19.00;15.00;;;;;;;;6360347;22;28294;-84
2022/01/23 10:02:37;;;;;;;;;23.75;12.25;;;;;;;;6361788;22;28486;-84
2022/01/23 10:05:03;;;;;;;;;23.00;17.50;;;;;;;;6361675;22;28264;-84
2022/01/23 10:07:29;;;;;;;;;23.75;15.50;;;;;;;;6333494;22;28204;-83
2022/01/23 10:10:06;;;;;;;;;19.25;14.75;;;;;;;;6333253;22;28551;-84
2022/01/23 10:12:32;;;;;;;;;12.25;10.00;;;;;;;;6334050;22;28418;-83
2022/01/23 10:14:57;;;;;;;;;20.00;10.00;;;;;;;;6360953;22;28495;-83
2022/01/23 10:17:23;;;;;;;;;23.75;12.50;;;;;;;;6330964;22;28525;-84
2022/01/23 10:19:48;;;;;;;;;19.25;11.25;;;;;;;;6359505;22;28675;-83
2022/01/23 10:22:15;;;;;;;;;15.00;10.75;;;;;;;;6360886;22;28392;-83
2022/01/23 10:24:40;;;;;;;;;20.25;12.75;;;;;;;;6361214;22;28287;-83
2022/01/23 10:27:06;;;;;;;;;14.25;11.00;;;;;;;;6331904;22;29855;-83
2022/01/23 10:29:34;;;;;;;;;16.75;10.75;;;;;;;;6360567;22;28398;-83
2022/01/23 10:31:59;;;;;;;;;8.75;7.00;;;;;;;;6360495;22;28381;-84
2022/01/23 10:34:43;;;;;;;;;8.67;7.00;;;;;;;;6361636;22;29679;-82
2022/01/23 10:37:26;;;;;;;;;12.00;10.50;;;;;;;;6333351;22;28577;-83
2022/01/23 10:39:51;;;;;;;;;17.50;12.00;;;;;;;;6332449;22;28220;-84
2022/01/23 10:42:49;;;;;;;;;11.75;10.00;;;;;;;;6358919;22;28427;-83
2022/01/23 10:50:52;;;;;;;;;18.00;12.00;;;;;;;;6360750;22;28327;-84
2022/01/23 10:53:23;;;;;;;;;15.00;11.00;;;;;;;;6330203;22;28515;-83
2022/01/23 10:55:50;;;;;;;;;25.50;15.00;;;;;;;;6358278;22;28384;-84
2022/01/23 10:58:31;;;;;;;;;;;;;;;;;;;;;
2022/01/23 11:01:05;;;;;;;;;17.00;13.00;;;;;;;;6357848;22;53371;-84
2022/01/23 11:03:53;;;;;;;;;16.75;10.75;;;;;;;;6331498;22;28431;-84
2022/01/23 11:06:28;;;;;;;;;19.25;13.75;;;;;;;;6200676;23;29422;-84
2022/01/23 11:09:16;;;;;;;;;10.50;8.50;;;;;;;;6340980;22;28499;-84
2022/01/23 11:11:59;;;;;;;;;19.00;9.50;;;;;;;;6360715;22;28181;-85
2022/01/23 11:17:25;;;;;;;;;22.00;16.00;;;;;;;;6360550;22;28696;-85
2022/01/23 11:19:53;;;;;;;;;25.25;16.50;;;;;;;;6300341;22;29461;-85
2022/01/23 11:22:19;;;;;;;;;19.00;12.25;;;;;;;;6328444;22;28366;-84
2022/01/23 11:24:48;;;;;;;;;21.00;17.25;;;;;;;;6326850;22;28794;-83
2022/01/23 11:27:17;;;;;;;;;22.75;18.25;;;;;;;;6327720;22;28348;-85
2022/01/23 11:30:02;;;;;;;;;25.00;19.00;;;;;;;;6328416;22;28294;-86
2022/01/23 11:32:33;;;;;;;;;16.25;14.25;;;;;;;;6301203;22;28405;-86
2022/01/23 11:35:08;;;;;;;;;20.00;14.50;;;;;;;;6300527;22;29294;-85
2022/01/23 11:37:43;;;;;;;;;;;;;;;;;;;;;
2022/01/23 12:02:25;;;;;;;;;;;;;;;;;;;;;
2022/01/23 12:05:12;;;;;;;;;16.25;9.00;;;;;;;;6328364;22;56439;-88
2022/01/23 12:10:30;;;;;;;;;12.75;9.25;;;;;;;;6328636;22;29160;-82
2022/01/23 12:13:21;;;;;;;;;15.00;10.00;;;;;;;;6301167;22;29861;-82
2022/01/23 12:18:37;;;;;;;;;20.25;12.00;;;;;;;;6329769;22;28497;-82
2022/01/23 12:21:02;;;;;;;;;20.25;11.00;;;;;;;;6330587;22;28416;-82
2022/01/23 12:23:28;;;;;;;;;22.25;17.75;;;;;;;;6302642;22;29997;-82
2022/01/23 12:25:54;;;;;;;;;23.50;16.50;;;;;;;;6331130;22;28475;-82
2022/01/23 12:28:31;;;;;;;;;18.00;12.25;;;;;;;;6331205;22;28279;-85
2022/01/23 12:31:20;;;;;;;;;22.25;15.00;;;;;;;;6331046;22;28559;-82
2022/01/23 12:33:47;;;;;;;;;20.50;16.00;;;;;;;;6321418;22;28599;-83
2022/01/23 12:36:12;;;;;;;;;20.75;15.25;;;;;;;;6302700;22;29687;-82
2022/01/23 12:38:40;;;;;;;;;31.00;18.33;;;;;;;;6330861;22;28472;-83
2022/01/23 12:41:13;;;;;;;;;19.00;16.50;;;;;;;;6330651;22;28484;-82
2022/01/23 12:43:38;;;;;;;;;20.50;11.25;;;;;;;;6302459;22;28449;-82
2022/01/23 12:46:08;;;;;;;;;20.50;14.75;;;;;;;;6330940;22;28461;-82
2022/01/23 12:48:36;;;;;;;;;21.00;13.75;;;;;;;;6330059;22;28306;-82
2022/01/23 12:51:03;;;;;;;;;36.50;20.75;;;;;;;;6330682;22;27797;-82
2022/01/23 12:53:38;;;;;;;;;19.75;14.00;;;;;;;;6302661;22;30120;-82
2022/01/23 12:56:05;;;;;;;;;24.00;15.75;;;;;;;;6330777;22;28346;-82
2022/01/23 12:58:39;;;;;;;;;26.50;21.50;;;;;;;;6302054;22;28410;-83
2022/01/23 13:01:05;;;;;;;;;31.00;18.50;;;;;;;;6329750;22;28439;-81
2022/01/23 13:03:30;;;;;;;;;18.00;15.75;;;;;;;;6330221;22;28644;-81
2022/01/23 13:05:55;;;;;;;;;29.00;18.67;;;;;;;;6301849;22;28336;-80
2022/01/23 13:08:26;;;;;;;;;22.50;15.00;;;;;;;;6329747;22;28492;-80
2022/01/23 13:13:53;;;;;;;;;54.00;40.25;;;;;;;;6279879;22;28520;-80
2022/01/23 13:16:34;;;;;;;;;53.50;37.75;;;;;;;;6301633;22;29318;-80
2022/01/23 13:19:31;;;;;;;;;28.25;22.50;;;;;;;;6329648;22;28299;-80
2022/01/23 13:30:13;;;;;;;;;37.50;23.00;;;;;;;;6330171;22;28249;-80
2022/01/23 13:32:43;;;;;;;;;26.75;15.75;;;;;;;;6330187;22;28214;-79
2022/01/23 13:35:13;;;;;;;;;36.00;18.00;;;;;;;;6330150;22;29211;-80
2022/01/23 13:37:39;;;;;;;;;28.25;18.50;;;;;;;;6329432;22;27853;-79
2022/01/23 13:40:12;;;;;;;;;25.75;17.25;;;;;;;;6302080;22;28359;-80
2022/01/23 13:48:21;;;;;;;;;31.25;16.50;;;;;;;;6329140;22;28587;-80
2022/01/23 13:53:29;;;;;;;;;19.00;15.75;;;;;;;;6329846;22;28338;-80
2022/01/23 13:58:40;;;;;;;;;25.50;18.25;;;;;;;;6329484;22;28267;-80
2022/01/23 14:03:50;;;;;;;;;20.25;15.75;;;;;;;;6329563;22;28192;-80
2022/01/23 14:06:15;;;;;;;;;23.50;19.50;;;;;;;;6329848;22;28239;-80
2022/01/23 14:08:40;;;;;;;;;21.50;19.50;;;;;;;;6301432;22;29315;-80
2022/01/23 14:11:06;;;;;;;;;25.75;18.00;;;;;;;;6301849;22;28343;-79
2022/01/23 14:13:31;;;;;;;;;21.00;14.67;;;;;;;;6328929;22;28628;-81
2022/01/23 14:15:56;;;;;;;;;25.67;19.00;;;;;;;;6329902;22;29848;-80
2022/01/23 14:18:29;;;;;;;;;26.00;16.50;;;;;;;;6329674;22;28351;-79
2022/01/23 14:21:05;;;;;;;;;23.50;18.00;;;;;;;;6301874;22;28185;-80
2022/01/23 14:26:46;;;;;;;;;;;;;;;;;;4368659;22;129872346;-80
2022/01/23 14:29:49;;;;;;;;;12.50;12.50;;;;;;;;3;78549588;101794908;-81
2022/01/23 14:32:21;;;;;;;;;24.50;17.50;;;;;;;;6304785;22;484261;-80
2022/01/23 14:34:46;;;;;;;;;22.25;19.25;;;;;;;;6329133;22;28436;-80
2022/01/23 14:37:12;;;;;;;;;26.75;20.75;;;;;;;;6301054;22;28358;-80
2022/01/23 14:39:37;;;;;;;;;25.67;18.00;;;;;;;;6329515;22;28239;-80
2022/01/23 14:42:13;;;;;;;;;27.75;20.75;;;;;;;;6329067;22;28270;-79
2022/01/23 14:44:39;;;;;;;;;24.25;21.75;;;;;;;;6301390;22;28539;-80
2022/01/23 14:47:05;;;;;;;;;24.00;17.00;;;;;;;;6329821;22;28188;-80
2022/01/23 14:49:32;;;;;;;;;28.75;18.25;;;;;;;;6329501;22;28186;-79
2022/01/23 14:55:40;;;;;;;;;26.50;20.00;;;;;;;;6246716;22;28393;-82
2022/01/23 14:58:36;;;;;;;;;;;;;;;;;;;;;
2022/01/23 15:05:12;;;;;;;;;17.25;15.75;;;;;;;;6252382;22;28653;-83
2022/01/23 15:07:17;;;;;;;;;27.50;16.25;;;;;;;;6265043;22;28420;-81
2022/01/23 15:09:44;;;;;;;;;26.00;20.00;;;;;;;;6301069;22;28383;-83
2022/01/23 15:12:10;;;;;;;;;24.25;20.00;;;;;;;;6329707;22;28210;-82
2022/01/23 15:14:35;;;;;;;;;25.25;16.75;;;;;;;;6299906;22;28445;-81
2022/01/23 15:17:20;;;;;;;;;32.50;17.50;;;;;;;;5893823;22;10611998;-82
2022/01/23 15:22:14;;;;;;;;;;;;;;;;;;4;42017966;95092967;-82
2022/01/23 15:29:01;;;;;;;;;28.00;18.75;;;;;;;;6304421;22;29157;-83
2022/01/23 15:33:43;;;;;;;;;10.00;8.00;;;;;;;;2621111;22;78663172;-82
2022/01/23 15:36:36;;;;;;;;;;;;;;;;;;6;25551837;35255996;-81
2022/01/23 15:39:05;;;;;;;;;33.75;27.00;;;;;;;;5581328;22;8860654;-83
2022/01/23 15:41:30;;;;;;;;;32.50;20.75;;;;;;;;6331710;22;28435;-82
2022/01/23 15:43:55;;;;;;;;;28.00;21.67;;;;;;;;6332417;22;28444;-82
2022/01/23 15:46:20;;;;;;;;;18.67;17.33;;;;;;;;6332805;22;28286;-81
2022/01/23 15:48:57;;;;;;;;;24.00;18.75;;;;;;;;6332599;22;28365;-82
2022/01/23 15:51:22;;;;;;;;;25.00;16.75;;;;;;;;6310705;22;28467;-82
2022/01/23 15:53:48;;;;;;;;;32.33;26.00;;;;;;;;6347171;22;28182;-82
2022/01/23 15:56:13;;;;;;;;;29.00;21.00;;;;;;;;6342686;22;28431;-82
2022/01/23 15:58:38;;;;;;;;;29.00;25.33;;;;;;;;6306134;22;28295;-83
2022/01/23 16:02:41;;;;;;;;;13.50;12.00;;;;;;;;5496530;22;33986705;-83
2022/01/23 16:05:39;;;;;;;;;30.00;21.00;;;;;;;;7;11229820;53210609;-83
2022/01/23 16:08:15;;;;;;;;;24.00;16.50;;;;;;;;3711959;22;13486130;-82
2022/01/23 16:11:00;;;;;;;;;18.50;17.00;;;;;;;;8;8743718;43576784;-83
2022/01/23 16:14:51;;;;;;;;;2.50;2.50;;;;;;;;1302786;22;84203930;-82
2022/01/23 16:18:20;;;;;;;;;;;;;;;;;;7;19857205;36341254;-82
2022/01/23 16:21:46;;;;;;;;;17.50;7.50;;;;;;;;4;56200499;66456677;-83
2022/01/23 16:26:28;;;;;;;;;;;;;;;;;;;;;
2022/01/23 16:34:18;;;;;;;;;25.00;13.50;;;;;;;;9;13526924;20725384;-80
2022/01/23 16:51:05;;;;;;;;;22.00;21.75;;;;;;;;6167184;23;29111;-81
2022/01/23 17:06:29;;;;;;;;;31.25;21.25;;;;;;;;6109423;23;28551;-81
2022/01/23 17:08:55;;;;;;;;;32.00;24.00;;;;;;;;6213825;22;28415;-82
2022/01/23 17:11:20;;;;;;;;;35.50;25.25;;;;;;;;6234201;22;28532;-82
2022/01/23 17:13:46;;;;;;;;;31.50;26.00;;;;;;;;6273348;22;29081;-84
2022/01/23 17:16:50;;;;;;;;;33.50;24.75;;;;;;;;6328404;22;28574;-83
2022/01/23 17:25:50;;;;;;;;;41.75;35.00;;;;;;;;6227714;22;28482;-82
2022/01/23 17:34:26;;;;;;;;;37.75;31.00;;;;;;;;6203818;23;28517;-81
2022/01/23 17:36:51;;;;;;;;;37.75;30.50;;;;;;;;6227381;22;28469;-79
2022/01/23 17:41:02;;;;;;;;;;;;;;;;;;3871827;22;71744355;-80
2022/01/23 17:43:49;;;;;;;;;20.50;18.00;;;;;;;;5;12261128;62729701;-81
2022/01/23 17:46:33;;;;;;;;;26.50;16.00;;;;;;;;13;8763783;14073645;-80
2022/01/23 17:51:27;;;;;;;;;33.25;26.50;;;;;;;;6328158;22;28266;-80
2022/01/23 17:54:10;;;;;;;;;12.50;9.00;;;;;;;;718266;22;90270805;-80
2022/01/23 17:58:00;;;;;;;;;;;;;;;;;;6;17474854;73062934;-80
2022/01/23 18:02:29;;;;;;;;;39.50;22.50;;;;;;;;12;9484039;52973043;-80
2022/01/23 18:04:54;;;;;;;;;37.50;29.75;;;;;;;;4453250;22;16538224;-81
2022/01/23 18:07:20;;;;;;;;;43.33;27.00;;;;;;;;6321853;22;93064;-83
2022/01/23 18:09:45;;;;;;;;;35.25;26.50;;;;;;;;6329065;22;28243;-81
2022/01/23 18:12:10;;;;;;;;;41.00;27.33;;;;;;;;5491976;22;1627781;-83
2022/01/23 18:14:46;;;;;;;;;37.25;30.75;;;;;;;;1919918;22;6639621;-81
2022/01/23 18:17:15;;;;;;;;;40.00;32.00;;;;;;;;679715;22;6521485;-81
2022/01/23 18:19:41;;;;;;;;;38.00;28.33;;;;;;;;684520;22;6140095;-80
2022/01/23 18:22:07;;;;;;;;;41.50;28.50;;;;;;;;524949;22;6381427;-78
2022/01/23 18:24:33;;;;;;;;;47.00;32.25;;;;;;;;1330377;22;6474224;-79
2022/01/23 18:27:00;;;;;;;;;42.25;32.50;;;;;;;;6141354;22;1546018;-77
2022/01/23 18:29:26;;;;;;;;;51.75;36.75;;;;;;;;6329279;22;28329;-79
2022/01/23 18:31:51;;;;;;;;;46.00;37.00;;;;;;;;6328410;22;28540;-80
2022/01/23 18:34:16;;;;;;;;;42.25;34.25;;;;;;;;6290092;22;896081;-80
2022/01/23 18:36:42;;;;;;;;;43.25;29.50;;;;;;;;5980022;22;4054858;-80
2022/01/23 18:39:09;;;;;;;;;39.50;25.50;;;;;;;;6300986;22;28421;-80
2022/01/23 18:41:38;;;;;;;;;31.50;26.50;;;;;;;;6298132;22;29211;-80
2022/01/23 18:44:06;;;;;;;;;38.00;31.25;;;;;;;;6299618;22;28414;-82
2022/01/23 18:48:14;;;;;;;;;;;;;;;;;;4995972;22;79782481;-80
2022/01/23 18:51:55;;;;;;;;;30.50;14.00;;;;;;;;9;17181402;23509844;-80
2022/01/23 18:56:56;;;;;;;;;;;;;;;;;;3;103259606;118301382;-81
2022/01/23 19:00:37;;;;;;;;;25.00;16.00;;;;;;;;6;17176857;62155158;-81
2022/01/23 19:04:18;;;;;;;;;;;;;;;;;;3;64392009;109692864;-81
2022/01/23 19:08:58;;;;;;;;;28.00;13.00;;;;;;;;4;53742777;81590930;-81
2022/01/23 19:12:46;;;;;;;;;;;;;;;;;;3;72865767;121972409;-81
2022/01/23 19:17:06;;;;;;;;;18.00;18.00;;;;;;;;4;40604632;83572339;-79
2022/01/23 19:21:10;;;;;;;;;28.50;21.50;;;;;;;;3;75203208;82410265;-79
2022/01/23 19:24:59;;;;;;;;;49.50;19.50;;;;;;;;3;71387243;78269901;-79
2022/01/23 19:30:18;;;;;;;;;22.50;17.00;;;;;;;;4;61319199;70739456;-80
2022/01/23 19:33:59;;;;;;;;;;;;;;;;;;3;84049072;104225653;-82
2022/01/23 19:39:27;;;;;;;;;26.00;17.00;;;;;;;;5;31711037;75278267;-82
2022/01/23 19:48:31;;;;;;;;;32.00;27.00;;;;;;;;4;60874595;74389422;-79
2022/01/23 19:51:30;;;;;;;;;;;;;;;;;;5;33719852;44177718;-81